sensor_id;sensor_type;location;lat;lon;timestamp;P1;durP1;ratioP1;P2;durP2;ratioP2
13868;SDS011;7004;48.206;16.402;2022-10-17T00:02:02;48.23;;;36.03;;
13868;SDS011;7004;48.206;16.402;2022-10-17T00:04:28;49.27;;;36.40;;
13868;SDS011;7004;48.206;16.402;2022-10-17T00:06:54;55.37;;;38.47;;
13868;SDS011;7004;48.206;16.402;2022-10-17T00:09:20;50.90;;;36.03;;
13868;SDS011;7004;48.206;16.402;2022-10-17T00:11:46;46.27;;;34.17;;
13868;SDS011;7004;48.206;16.402;2022-10-17T00:14:12;50.17;;;34.83;;
13868;SDS011;7004;48.206;16.402;2022-10-17T00:16:38;46.67;;;34.27;;
13868;SDS011;7004;48.206;16.402;2022-10-17T00:19:05;48.07;;;35.20;;
13868;SDS011;7004;48.206;16.402;2022-10-17T00:21:31;48.67;;;35.07;;
13868;SDS011;7004;48.206;16.402;2022-10-17T00:23:59;51.87;;;36.33;;
13868;SDS011;7004;48.206;16.402;2022-10-17T00:26:26;48.13;;;35.67;;
13868;SDS011;7004;48.206;16.402;2022-10-17T00:28:55;51.00;;;36.63;;
13868;SDS011;7004;48.206;16.402;2022-10-17T00:31:22;47.80;;;35.67;;
13868;SDS011;7004;48.206;16.402;2022-10-17T00:33:49;49.30;;;36.17;;
13868;SDS011;7004;48.206;16.402;2022-10-17T00:36:21;47.53;;;35.87;;
13868;SDS011;7004;48.206;16.402;2022-10-17T00:38:54;48.57;;;36.00;;
13868;SDS011;7004;48.206;16.402;2022-10-17T00:41:24;49.40;;;36.27;;
13868;SDS011;7004;48.206;16.402;2022-10-17T00:44:53;52.17;;;37.17;;
13868;SDS011;7004;48.206;16.402;2022-10-17T00:46:58;53.90;;;36.70;;
13868;SDS011;7004;48.206;16.402;2022-10-17T00:49:29;51.00;;;35.50;;
13868;SDS011;7004;48.206;16.402;2022-10-17T00:52:00;48.73;;;34.87;;
13868;SDS011;7004;48.206;16.402;2022-10-17T00:54:39;51.00;;;36.03;;
13868;SDS011;7004;48.206;16.402;2022-10-17T00:57:10;54.90;;;38.20;;
13868;SDS011;7004;48.206;16.402;2022-10-17T00:59:37;49.77;;;36.33;;
13868;SDS011;7004;48.206;16.402;2022-10-17T01:02:11;52.17;;;36.07;;
13868;SDS011;7004;48.206;16.402;2022-10-17T01:04:42;53.30;;;35.93;;
13868;SDS011;7004;48.206;16.402;2022-10-17T01:07:11;53.77;;;36.70;;
13868;SDS011;7004;48.206;16.402;2022-10-17T01:09:38;49.40;;;35.13;;
13868;SDS011;7004;48.206;16.402;2022-10-17T01:26:52;48.57;;;35.37;;
13868;SDS011;7004;48.206;16.402;2022-10-17T01:32:08;49.13;;;34.50;;
13868;SDS011;7004;48.206;16.402;2022-10-17T01:40:40;50.87;;;35.07;;
13868;SDS011;7004;48.206;16.402;2022-10-17T01:43:21;50.20;;;34.93;;
13868;SDS011;7004;48.206;16.402;2022-10-17T01:45:58;47.90;;;34.27;;
13868;SDS011;7004;48.206;16.402;2022-10-17T01:48:50;52.70;;;35.57;;
13868;SDS011;7004;48.206;16.402;2022-10-17T01:51:20;47.53;;;34.30;;
13868;SDS011;7004;48.206;16.402;2022-10-17T01:53:58;53.33;;;36.03;;
13868;SDS011;7004;48.206;16.402;2022-10-17T01:56:31;49.30;;;35.60;;
13868;SDS011;7004;48.206;16.402;2022-10-17T01:59:02;51.20;;;35.83;;
13868;SDS011;7004;48.206;16.402;2022-10-17T02:01:42;50.30;;;35.23;;
13868;SDS011;7004;48.206;16.402;2022-10-17T02:04:13;45.33;;;34.83;;
13868;SDS011;7004;48.206;16.402;2022-10-17T02:06:40;49.33;;;35.33;;
13868;SDS011;7004;48.206;16.402;2022-10-17T02:15:07;47.53;;;34.83;;
13868;SDS011;7004;48.206;16.402;2022-10-17T02:18:15;47.73;;;34.90;;
13868;SDS011;7004;48.206;16.402;2022-10-17T02:27:22;46.07;;;33.77;;
13868;SDS011;7004;48.206;16.402;2022-10-17T02:29:28;45.90;;;33.90;;
13868;SDS011;7004;48.206;16.402;2022-10-17T02:34:40;52.03;;;36.43;;
13868;SDS011;7004;48.206;16.402;2022-10-17T02:37:21;45.60;;;35.27;;
13868;SDS011;7004;48.206;16.402;2022-10-17T02:39:53;49.40;;;35.97;;
13868;SDS011;7004;48.206;16.402;2022-10-17T02:42:22;47.47;;;35.40;;
13868;SDS011;7004;48.206;16.402;2022-10-17T02:44:51;50.10;;;36.03;;
13868;SDS011;7004;48.206;16.402;2022-10-17T02:49:51;47.10;;;34.87;;
13868;SDS011;7004;48.206;16.402;2022-10-17T02:55:24;54.17;;;35.90;;
13868;SDS011;7004;48.206;16.402;2022-10-17T02:58:06;52.93;;;36.23;;
13868;SDS011;7004;48.206;16.402;2022-10-17T03:00:39;50.13;;;34.60;;
13868;SDS011;7004;48.206;16.402;2022-10-17T03:03:20;50.30;;;35.67;;
13868;SDS011;7004;48.206;16.402;2022-10-17T03:05:53;49.37;;;36.30;;
13868;SDS011;7004;48.206;16.402;2022-10-17T03:08:21;46.30;;;34.40;;
13868;SDS011;7004;48.206;16.402;2022-10-17T03:10:48;53.67;;;36.50;;
13868;SDS011;7004;48.206;16.402;2022-10-17T03:13:15;50.27;;;36.40;;
13868;SDS011;7004;48.206;16.402;2022-10-17T03:15:42;48.47;;;35.03;;
13868;SDS011;7004;48.206;16.402;2022-10-17T03:18:08;48.23;;;36.77;;
13868;SDS011;7004;48.206;16.402;2022-10-17T03:20:36;50.33;;;35.57;;
13868;SDS011;7004;48.206;16.402;2022-10-17T03:23:02;48.87;;;36.00;;
13868;SDS011;7004;48.206;16.402;2022-10-17T03:25:29;48.10;;;34.20;;
13868;SDS011;7004;48.206;16.402;2022-10-17T03:27:56;47.30;;;35.23;;
13868;SDS011;7004;48.206;16.402;2022-10-17T03:30:24;48.97;;;35.20;;
13868;SDS011;7004;48.206;16.402;2022-10-17T03:32:50;47.20;;;34.23;;
13868;SDS011;7004;48.206;16.402;2022-10-17T03:35:16;48.10;;;34.43;;
13868;SDS011;7004;48.206;16.402;2022-10-17T03:37:43;45.40;;;34.33;;
13868;SDS011;7004;48.206;16.402;2022-10-17T03:40:09;45.50;;;34.93;;
13868;SDS011;7004;48.206;16.402;2022-10-17T03:42:35;48.47;;;35.57;;
13868;SDS011;7004;48.206;16.402;2022-10-17T03:45:02;48.97;;;35.87;;
13868;SDS011;7004;48.206;16.402;2022-10-17T03:47:28;47.30;;;34.93;;
13868;SDS011;7004;48.206;16.402;2022-10-17T03:49:55;48.87;;;36.83;;
13868;SDS011;7004;48.206;16.402;2022-10-17T03:52:21;45.90;;;34.20;;
13868;SDS011;7004;48.206;16.402;2022-10-17T03:54:48;49.73;;;35.60;;
13868;SDS011;7004;48.206;16.402;2022-10-17T03:57:15;47.47;;;33.97;;
13868;SDS011;7004;48.206;16.402;2022-10-17T03:59:43;52.40;;;35.40;;
13868;SDS011;7004;48.206;16.402;2022-10-17T04:02:09;48.60;;;35.03;;
13868;SDS011;7004;48.206;16.402;2022-10-17T04:04:35;46.50;;;34.10;;
13868;SDS011;7004;48.206;16.402;2022-10-17T04:07:02;47.43;;;34.33;;
13868;SDS011;7004;48.206;16.402;2022-10-17T04:09:28;46.00;;;34.37;;
13868;SDS011;7004;48.206;16.402;2022-10-17T04:11:54;42.97;;;34.37;;
13868;SDS011;7004;48.206;16.402;2022-10-17T04:14:20;46.60;;;34.27;;
13868;SDS011;7004;48.206;16.402;2022-10-17T04:16:46;47.03;;;34.50;;
13868;SDS011;7004;48.206;16.402;2022-10-17T04:19:13;45.23;;;34.23;;
13868;SDS011;7004;48.206;16.402;2022-10-17T04:21:39;47.33;;;35.63;;
13868;SDS011;7004;48.206;16.402;2022-10-17T04:24:05;47.60;;;35.80;;
13868;SDS011;7004;48.206;16.402;2022-10-17T04:26:33;48.07;;;34.77;;
13868;SDS011;7004;48.206;16.402;2022-10-17T04:28:59;48.30;;;34.80;;
13868;SDS011;7004;48.206;16.402;2022-10-17T04:31:25;45.53;;;34.10;;
13868;SDS011;7004;48.206;16.402;2022-10-17T04:33:52;51.53;;;33.53;;
13868;SDS011;7004;48.206;16.402;2022-10-17T04:36:18;46.93;;;34.73;;
13868;SDS011;7004;48.206;16.402;2022-10-17T04:38:45;49.60;;;33.97;;
13868;SDS011;7004;48.206;16.402;2022-10-17T04:41:12;47.43;;;34.97;;
13868;SDS011;7004;48.206;16.402;2022-10-17T04:43:41;48.70;;;35.10;;
13868;SDS011;7004;48.206;16.402;2022-10-17T04:46:09;47.97;;;33.97;;
13868;SDS011;7004;48.206;16.402;2022-10-17T04:48:37;46.17;;;33.93;;
13868;SDS011;7004;48.206;16.402;2022-10-17T04:51:05;46.50;;;35.57;;
13868;SDS011;7004;48.206;16.402;2022-10-17T04:53:35;50.87;;;34.90;;
13868;SDS011;7004;48.206;16.402;2022-10-17T04:56:07;47.20;;;33.77;;
13868;SDS011;7004;48.206;16.402;2022-10-17T04:58:36;48.73;;;35.87;;
13868;SDS011;7004;48.206;16.402;2022-10-17T05:01:03;42.97;;;33.10;;
13868;SDS011;7004;48.206;16.402;2022-10-17T05:03:31;47.80;;;34.67;;
13868;SDS011;7004;48.206;16.402;2022-10-17T05:06:01;42.83;;;33.13;;
13868;SDS011;7004;48.206;16.402;2022-10-17T05:08:30;47.37;;;34.90;;
13868;SDS011;7004;48.206;16.402;2022-10-17T05:10:57;40.50;;;32.30;;
13868;SDS011;7004;48.206;16.402;2022-10-17T05:13:23;43.50;;;32.40;;
13868;SDS011;7004;48.206;16.402;2022-10-17T05:15:49;43.60;;;30.77;;
13868;SDS011;7004;48.206;16.402;2022-10-17T05:18:15;49.10;;;34.23;;
13868;SDS011;7004;48.206;16.402;2022-10-17T05:20:41;46.47;;;34.23;;
13868;SDS011;7004;48.206;16.402;2022-10-17T05:23:07;42.90;;;31.60;;
13868;SDS011;7004;48.206;16.402;2022-10-17T05:25:33;44.90;;;34.20;;
13868;SDS011;7004;48.206;16.402;2022-10-17T05:27:59;43.70;;;34.90;;
13868;SDS011;7004;48.206;16.402;2022-10-17T05:30:25;44.90;;;33.53;;
13868;SDS011;7004;48.206;16.402;2022-10-17T05:32:52;46.77;;;33.57;;
13868;SDS011;7004;48.206;16.402;2022-10-17T05:35:19;45.73;;;33.63;;
13868;SDS011;7004;48.206;16.402;2022-10-17T05:37:46;41.53;;;32.80;;
13868;SDS011;7004;48.206;16.402;2022-10-17T05:40:12;50.07;;;33.97;;
13868;SDS011;7004;48.206;16.402;2022-10-17T05:42:39;49.20;;;35.10;;
13868;SDS011;7004;48.206;16.402;2022-10-17T05:45:09;50.70;;;34.60;;
13868;SDS011;7004;48.206;16.402;2022-10-17T05:47:35;47.27;;;34.87;;
13868;SDS011;7004;48.206;16.402;2022-10-17T05:50:01;47.57;;;34.80;;
13868;SDS011;7004;48.206;16.402;2022-10-17T05:52:28;47.40;;;34.97;;
13868;SDS011;7004;48.206;16.402;2022-10-17T05:54:54;45.37;;;33.33;;
13868;SDS011;7004;48.206;16.402;2022-10-17T05:57:23;47.23;;;33.03;;
13868;SDS011;7004;48.206;16.402;2022-10-17T05:59:50;49.53;;;34.80;;
13868;SDS011;7004;48.206;16.402;2022-10-17T06:02:16;45.80;;;33.27;;
13868;SDS011;7004;48.206;16.402;2022-10-17T06:04:43;45.93;;;32.57;;
13868;SDS011;7004;48.206;16.402;2022-10-17T06:07:11;46.73;;;32.43;;
13868;SDS011;7004;48.206;16.402;2022-10-17T06:09:37;50.57;;;32.63;;
13868;SDS011;7004;48.206;16.402;2022-10-17T06:12:04;40.27;;;31.50;;
13868;SDS011;7004;48.206;16.402;2022-10-17T06:14:31;44.30;;;32.70;;
13868;SDS011;7004;48.206;16.402;2022-10-17T06:16:57;51.17;;;33.10;;
13868;SDS011;7004;48.206;16.402;2022-10-17T06:19:23;48.90;;;32.30;;
13868;SDS011;7004;48.206;16.402;2022-10-17T06:21:50;48.53;;;32.73;;
13868;SDS011;7004;48.206;16.402;2022-10-17T06:24:16;46.90;;;32.33;;
13868;SDS011;7004;48.206;16.402;2022-10-17T06:26:45;51.47;;;32.20;;
13868;SDS011;7004;48.206;16.402;2022-10-17T06:29:14;42.57;;;32.13;;
13868;SDS011;7004;48.206;16.402;2022-10-17T06:31:40;64.17;;;32.97;;
13868;SDS011;7004;48.206;16.402;2022-10-17T06:34:06;49.30;;;30.60;;
13868;SDS011;7004;48.206;16.402;2022-10-17T06:36:32;50.03;;;31.83;;
13868;SDS011;7004;48.206;16.402;2022-10-17T06:38:58;47.03;;;32.23;;
13868;SDS011;7004;48.206;16.402;2022-10-17T06:41:25;50.40;;;31.40;;
13868;SDS011;7004;48.206;16.402;2022-10-17T06:43:51;43.00;;;31.33;;
13868;SDS011;7004;48.206;16.402;2022-10-17T06:46:17;44.60;;;32.83;;
13868;SDS011;7004;48.206;16.402;2022-10-17T06:48:44;42.17;;;29.27;;
13868;SDS011;7004;48.206;16.402;2022-10-17T06:51:10;37.97;;;28.87;;
13868;SDS011;7004;48.206;16.402;2022-10-17T06:53:40;42.73;;;28.60;;
13868;SDS011;7004;48.206;16.402;2022-10-17T06:56:06;39.30;;;28.17;;
13868;SDS011;7004;48.206;16.402;2022-10-17T06:58:35;42.07;;;26.83;;
13868;SDS011;7004;48.206;16.402;2022-10-17T07:01:05;33.73;;;25.77;;
13868;SDS011;7004;48.206;16.402;2022-10-17T07:03:36;33.07;;;26.20;;
13868;SDS011;7004;48.206;16.402;2022-10-17T07:06:04;29.67;;;24.73;;
13868;SDS011;7004;48.206;16.402;2022-10-17T07:08:31;31.50;;;24.93;;
13868;SDS011;7004;48.206;16.402;2022-10-17T07:10:57;30.20;;;23.13;;
13868;SDS011;7004;48.206;16.402;2022-10-17T07:13:32;38.33;;;25.40;;
13868;SDS011;7004;48.206;16.402;2022-10-17T07:15:58;76.57;;;26.50;;
13868;SDS011;7004;48.206;16.402;2022-10-17T07:18:26;47.70;;;24.20;;
13868;SDS011;7004;48.206;16.402;2022-10-17T07:20:52;36.53;;;24.33;;
13868;SDS011;7004;48.206;16.402;2022-10-17T07:23:19;36.57;;;23.07;;
13868;SDS011;7004;48.206;16.402;2022-10-17T07:25:46;48.30;;;23.87;;
13868;SDS011;7004;48.206;16.402;2022-10-17T07:28:13;33.87;;;24.17;;
13868;SDS011;7004;48.206;16.402;2022-10-17T07:30:40;28.70;;;21.53;;
13868;SDS011;7004;48.206;16.402;2022-10-17T07:33:06;28.63;;;22.43;;
13868;SDS011;7004;48.206;16.402;2022-10-17T07:35:32;33.93;;;24.03;;
13868;SDS011;7004;48.206;16.402;2022-10-17T07:37:59;31.47;;;22.00;;
13868;SDS011;7004;48.206;16.402;2022-10-17T07:40:25;29.53;;;22.70;;
13868;SDS011;7004;48.206;16.402;2022-10-17T07:42:51;29.57;;;22.43;;
13868;SDS011;7004;48.206;16.402;2022-10-17T07:45:17;31.57;;;22.53;;
13868;SDS011;7004;48.206;16.402;2022-10-17T07:47:43;33.33;;;22.70;;
13868;SDS011;7004;48.206;16.402;2022-10-17T07:50:09;34.67;;;21.13;;
13868;SDS011;7004;48.206;16.402;2022-10-17T07:52:35;32.67;;;22.27;;
13868;SDS011;7004;48.206;16.402;2022-10-17T07:55:02;37.03;;;22.40;;
13868;SDS011;7004;48.206;16.402;2022-10-17T07:57:28;23.33;;;20.63;;
13868;SDS011;7004;48.206;16.402;2022-10-17T07:59:54;30.67;;;22.17;;
13868;SDS011;7004;48.206;16.402;2022-10-17T08:02:21;30.17;;;23.40;;
13868;SDS011;7004;48.206;16.402;2022-10-17T08:04:50;31.40;;;22.77;;
13868;SDS011;7004;48.206;16.402;2022-10-17T08:07:17;26.63;;;22.20;;
13868;SDS011;7004;48.206;16.402;2022-10-17T08:09:44;28.37;;;22.50;;
13868;SDS011;7004;48.206;16.402;2022-10-17T08:12:11;38.60;;;23.73;;
13868;SDS011;7004;48.206;16.402;2022-10-17T08:14:39;28.13;;;21.67;;
13868;SDS011;7004;48.206;16.402;2022-10-17T08:17:06;34.20;;;23.47;;
13868;SDS011;7004;48.206;16.402;2022-10-17T08:19:33;31.70;;;23.47;;
13868;SDS011;7004;48.206;16.402;2022-10-17T08:22:01;32.37;;;24.40;;
13868;SDS011;7004;48.206;16.402;2022-10-17T08:24:28;32.23;;;23.83;;
13868;SDS011;7004;48.206;16.402;2022-10-17T08:26:54;29.53;;;23.90;;
13868;SDS011;7004;48.206;16.402;2022-10-17T08:29:22;34.37;;;25.23;;
13868;SDS011;7004;48.206;16.402;2022-10-17T08:31:49;47.60;;;26.57;;
13868;SDS011;7004;48.206;16.402;2022-10-17T08:34:15;34.40;;;24.00;;
13868;SDS011;7004;48.206;16.402;2022-10-17T08:36:41;35.60;;;24.53;;
13868;SDS011;7004;48.206;16.402;2022-10-17T08:39:07;30.30;;;25.57;;
13868;SDS011;7004;48.206;16.402;2022-10-17T08:44:32;32.77;;;24.80;;
13868;SDS011;7004;48.206;16.402;2022-10-17T08:47:34;26.93;;;23.67;;
13868;SDS011;7004;48.206;16.402;2022-10-17T08:52:56;35.40;;;26.03;;
13868;SDS011;7004;48.206;16.402;2022-10-17T08:55:45;29.93;;;24.17;;
13868;SDS011;7004;48.206;16.402;2022-10-17T08:58:14;40.33;;;24.50;;
13868;SDS011;7004;48.206;16.402;2022-10-17T09:07:13;31.60;;;24.87;;
13868;SDS011;7004;48.206;16.402;2022-10-17T09:12:51;36.60;;;24.93;;
13868;SDS011;7004;48.206;16.402;2022-10-17T09:16:18;30.93;;;24.33;;
13868;SDS011;7004;48.206;16.402;2022-10-17T09:18:46;32.97;;;25.50;;
13868;SDS011;7004;48.206;16.402;2022-10-17T09:24:18;30.10;;;25.13;;
13868;SDS011;7004;48.206;16.402;2022-10-17T09:27:01;28.63;;;24.20;;
13868;SDS011;7004;48.206;16.402;2022-10-17T09:29:28;33.93;;;25.47;;
13868;SDS011;7004;48.206;16.402;2022-10-17T09:34:39;30.67;;;24.73;;
13868;SDS011;7004;48.206;16.402;2022-10-17T09:37:08;28.70;;;24.87;;
13868;SDS011;7004;48.206;16.402;2022-10-17T09:39:40;33.97;;;25.73;;
13868;SDS011;7004;48.206;16.402;2022-10-17T09:42:12;27.97;;;24.00;;
13868;SDS011;7004;48.206;16.402;2022-10-17T09:44:51;29.93;;;24.30;;
13868;SDS011;7004;48.206;16.402;2022-10-17T09:47:42;29.87;;;24.37;;
13868;SDS011;7004;48.206;16.402;2022-10-17T09:50:30;28.80;;;24.30;;
13868;SDS011;7004;48.206;16.402;2022-10-17T09:53:02;31.60;;;25.00;;
13868;SDS011;7004;48.206;16.402;2022-10-17T09:55:54;38.47;;;24.83;;
13868;SDS011;7004;48.206;16.402;2022-10-17T09:58:23;36.40;;;25.23;;
13868;SDS011;7004;48.206;16.402;2022-10-17T10:04:07;34.10;;;24.50;;
13868;SDS011;7004;48.206;16.402;2022-10-17T10:06:59;31.20;;;24.37;;
13868;SDS011;7004;48.206;16.402;2022-10-17T10:09:32;29.23;;;23.70;;
13868;SDS011;7004;48.206;16.402;2022-10-17T10:12:02;30.33;;;24.83;;
13868;SDS011;7004;48.206;16.402;2022-10-17T10:14:40;29.77;;;23.93;;
13868;SDS011;7004;48.206;16.402;2022-10-17T10:17:24;27.93;;;23.13;;
13868;SDS011;7004;48.206;16.402;2022-10-17T10:20:26;28.27;;;23.17;;
13868;SDS011;7004;48.206;16.402;2022-10-17T10:25:59;26.73;;;23.83;;
13868;SDS011;7004;48.206;16.402;2022-10-17T10:28:29;31.27;;;22.57;;
13868;SDS011;7004;48.206;16.402;2022-10-17T10:31:05;38.33;;;23.30;;
13868;SDS011;7004;48.206;16.402;2022-10-17T10:33:34;29.87;;;21.60;;
13868;SDS011;7004;48.206;16.402;2022-10-17T10:36:06;25.00;;;21.23;;
13868;SDS011;7004;48.206;16.402;2022-10-17T10:38:33;26.80;;;23.50;;
13868;SDS011;7004;48.206;16.402;2022-10-17T10:41:05;27.00;;;22.63;;
13868;SDS011;7004;48.206;16.402;2022-10-17T10:46:19;27.37;;;21.93;;
13868;SDS011;7004;48.206;16.402;2022-10-17T10:48:54;27.13;;;21.07;;
13868;SDS011;7004;48.206;16.402;2022-10-17T10:51:28;28.27;;;20.40;;
13868;SDS011;7004;48.206;16.402;2022-10-17T10:54:03;27.50;;;21.40;;
13868;SDS011;7004;48.206;16.402;2022-10-17T10:56:59;24.53;;;20.90;;
13868;SDS011;7004;48.206;16.402;2022-10-17T10:59:30;26.03;;;20.10;;
13868;SDS011;7004;48.206;16.402;2022-10-17T11:02:23;26.73;;;22.13;;
13868;SDS011;7004;48.206;16.402;2022-10-17T11:05:23;25.03;;;21.43;;
13868;SDS011;7004;48.206;16.402;2022-10-17T11:07:55;23.43;;;20.20;;
13868;SDS011;7004;48.206;16.402;2022-10-17T11:13:26;28.27;;;19.80;;
13868;SDS011;7004;48.206;16.402;2022-10-17T11:16:22;23.57;;;20.53;;
13868;SDS011;7004;48.206;16.402;2022-10-17T11:24:59;26.63;;;20.37;;
13868;SDS011;7004;48.206;16.402;2022-10-17T11:27:38;26.97;;;21.37;;
13868;SDS011;7004;48.206;16.402;2022-10-17T11:30:04;24.60;;;20.40;;
13868;SDS011;7004;48.206;16.402;2022-10-17T11:35:20;26.60;;;20.27;;
13868;SDS011;7004;48.206;16.402;2022-10-17T11:38:02;25.03;;;20.97;;
13868;SDS011;7004;48.206;16.402;2022-10-17T11:40:57;24.50;;;19.67;;
13868;SDS011;7004;48.206;16.402;2022-10-17T11:43:26;24.17;;;20.60;;
13868;SDS011;7004;48.206;16.402;2022-10-17T11:46:19;23.07;;;19.43;;
13868;SDS011;7004;48.206;16.402;2022-10-17T11:48:56;22.67;;;19.87;;
13868;SDS011;7004;48.206;16.402;2022-10-17T11:51:53;22.50;;;18.40;;
13868;SDS011;7004;48.206;16.402;2022-10-17T11:57:18;22.77;;;19.07;;
13868;SDS011;7004;48.206;16.402;2022-10-17T12:09:17;24.83;;;19.00;;
13868;SDS011;7004;48.206;16.402;2022-10-17T12:12:07;20.47;;;18.13;;
13868;SDS011;7004;48.206;16.402;2022-10-17T12:14:45;24.67;;;19.13;;
13868;SDS011;7004;48.206;16.402;2022-10-17T12:17:54;25.83;;;18.83;;
13868;SDS011;7004;48.206;16.402;2022-10-17T12:25:23;26.77;;;18.80;;
13868;SDS011;7004;48.206;16.402;2022-10-17T12:28:09;25.47;;;18.93;;
13868;SDS011;7004;48.206;16.402;2022-10-17T12:30:56;24.07;;;17.80;;
13868;SDS011;7004;48.206;16.402;2022-10-17T12:33:36;22.70;;;17.67;;
13868;SDS011;7004;48.206;16.402;2022-10-17T12:38:42;19.43;;;16.87;;
13868;SDS011;7004;48.206;16.402;2022-10-17T12:41:13;18.93;;;16.93;;
13868;SDS011;7004;48.206;16.402;2022-10-17T12:43:58;20.00;;;16.53;;
13868;SDS011;7004;48.206;16.402;2022-10-17T12:46:45;23.80;;;17.03;;
13868;SDS011;7004;48.206;16.402;2022-10-17T12:49:39;25.20;;;16.73;;
13868;SDS011;7004;48.206;16.402;2022-10-17T12:55:24;18.57;;;16.27;;
13868;SDS011;7004;48.206;16.402;2022-10-17T13:03:00;19.03;;;15.77;;
13868;SDS011;7004;48.206;16.402;2022-10-17T13:05:54;18.00;;;15.33;;
13868;SDS011;7004;48.206;16.402;2022-10-17T13:08:28;20.60;;;15.33;;
13868;SDS011;7004;48.206;16.402;2022-10-17T13:11:01;17.00;;;14.53;;
13868;SDS011;7004;48.206;16.402;2022-10-17T13:13:45;19.67;;;15.50;;
13868;SDS011;7004;48.206;16.402;2022-10-17T13:16:54;16.23;;;14.53;;
13868;SDS011;7004;48.206;16.402;2022-10-17T13:19:20;25.27;;;15.70;;
13868;SDS011;7004;48.206;16.402;2022-10-17T13:24:30;19.20;;;15.50;;
13868;SDS011;7004;48.206;16.402;2022-10-17T13:26:59;19.57;;;14.43;;
13868;SDS011;7004;48.206;16.402;2022-10-17T13:29:27;20.30;;;16.23;;
13868;SDS011;7004;48.206;16.402;2022-10-17T13:31:56;21.03;;;15.57;;
13868;SDS011;7004;48.206;16.402;2022-10-17T13:34:26;19.43;;;15.30;;
13868;SDS011;7004;48.206;16.402;2022-10-17T13:36:54;16.23;;;14.10;;
13868;SDS011;7004;48.206;16.402;2022-10-17T13:39:26;19.17;;;14.10;;
13868;SDS011;7004;48.206;16.402;2022-10-17T13:42:03;17.53;;;14.00;;
13868;SDS011;7004;48.206;16.402;2022-10-17T13:44:33;17.50;;;14.70;;
13868;SDS011;7004;48.206;16.402;2022-10-17T13:47:00;23.37;;;14.80;;
13868;SDS011;7004;48.206;16.402;2022-10-17T13:49:38;17.73;;;14.63;;
13868;SDS011;7004;48.206;16.402;2022-10-17T13:52:13;20.73;;;14.13;;
13868;SDS011;7004;48.206;16.402;2022-10-17T13:54:46;15.87;;;13.87;;
13868;SDS011;7004;48.206;16.402;2022-10-17T13:57:19;18.17;;;14.13;;
13868;SDS011;7004;48.206;16.402;2022-10-17T13:59:57;21.83;;;14.93;;
13868;SDS011;7004;48.206;16.402;2022-10-17T14:02:46;18.97;;;14.60;;
13868;SDS011;7004;48.206;16.402;2022-10-17T14:05:13;17.83;;;14.47;;
13868;SDS011;7004;48.206;16.402;2022-10-17T14:07:44;18.33;;;14.70;;
13868;SDS011;7004;48.206;16.402;2022-10-17T14:10:25;16.83;;;14.50;;
13868;SDS011;7004;48.206;16.402;2022-10-17T14:13:04;19.63;;;14.73;;
13868;SDS011;7004;48.206;16.402;2022-10-17T14:15:33;18.47;;;15.77;;
13868;SDS011;7004;48.206;16.402;2022-10-17T14:18:02;20.77;;;15.13;;
13868;SDS011;7004;48.206;16.402;2022-10-17T14:20:30;17.00;;;14.07;;
13868;SDS011;7004;48.206;16.402;2022-10-17T14:22:58;18.33;;;14.73;;
13868;SDS011;7004;48.206;16.402;2022-10-17T14:25:26;19.13;;;14.03;;
13868;SDS011;7004;48.206;16.402;2022-10-17T14:30:38;15.90;;;14.03;;
13868;SDS011;7004;48.206;16.402;2022-10-17T14:36:08;18.13;;;14.07;;
13868;SDS011;7004;48.206;16.402;2022-10-17T14:38:35;17.37;;;13.37;;
13868;SDS011;7004;48.206;16.402;2022-10-17T14:41:02;17.40;;;13.40;;
13868;SDS011;7004;48.206;16.402;2022-10-17T14:43:38;16.03;;;13.17;;
13868;SDS011;7004;48.206;16.402;2022-10-17T14:46:04;16.90;;;13.60;;
13868;SDS011;7004;48.206;16.402;2022-10-17T14:48:31;14.33;;;12.10;;
13868;SDS011;7004;48.206;16.402;2022-10-17T14:51:19;16.00;;;12.87;;
13868;SDS011;7004;48.206;16.402;2022-10-17T14:56:39;14.60;;;12.13;;
13868;SDS011;7004;48.206;16.402;2022-10-17T14:59:07;17.27;;;12.30;;
13868;SDS011;7004;48.206;16.402;2022-10-17T15:01:36;14.67;;;12.40;;
13868;SDS011;7004;48.206;16.402;2022-10-17T15:04:08;14.37;;;11.80;;
13868;SDS011;7004;48.206;16.402;2022-10-17T15:06:35;14.47;;;11.70;;
13868;SDS011;7004;48.206;16.402;2022-10-17T15:09:01;36.20;;;11.60;;
13868;SDS011;7004;48.206;16.402;2022-10-17T15:11:28;14.30;;;11.53;;
13868;SDS011;7004;48.206;16.402;2022-10-17T15:13:54;14.57;;;11.67;;
13868;SDS011;7004;48.206;16.402;2022-10-17T15:16:21;16.23;;;10.77;;
13868;SDS011;7004;48.206;16.402;2022-10-17T15:18:52;14.37;;;11.10;;
13868;SDS011;7004;48.206;16.402;2022-10-17T15:21:20;13.50;;;11.30;;
13868;SDS011;7004;48.206;16.402;2022-10-17T15:23:48;15.40;;;10.57;;
13868;SDS011;7004;48.206;16.402;2022-10-17T15:26:19;12.73;;;10.57;;
13868;SDS011;7004;48.206;16.402;2022-10-17T15:28:48;18.00;;;10.63;;
13868;SDS011;7004;48.206;16.402;2022-10-17T15:31:16;13.80;;;10.23;;
13868;SDS011;7004;48.206;16.402;2022-10-17T15:33:44;13.90;;;9.83;;
13868;SDS011;7004;48.206;16.402;2022-10-17T15:36:24;14.10;;;10.40;;
13868;SDS011;7004;48.206;16.402;2022-10-17T15:38:54;10.60;;;9.50;;
13868;SDS011;7004;48.206;16.402;2022-10-17T15:41:24;12.87;;;9.70;;
13868;SDS011;7004;48.206;16.402;2022-10-17T15:43:56;15.90;;;12.20;;
13868;SDS011;7004;48.206;16.402;2022-10-17T15:46:23;13.40;;;9.90;;
13868;SDS011;7004;48.206;16.402;2022-10-17T15:48:53;10.93;;;9.07;;
13868;SDS011;7004;48.206;16.402;2022-10-17T15:51:20;14.60;;;9.60;;
13868;SDS011;7004;48.206;16.402;2022-10-17T15:53:47;11.03;;;8.57;;
13868;SDS011;7004;48.206;16.402;2022-10-17T15:56:21;12.57;;;8.97;;
13868;SDS011;7004;48.206;16.402;2022-10-17T15:58:52;11.80;;;9.80;;
13868;SDS011;7004;48.206;16.402;2022-10-17T16:01:20;11.93;;;8.43;;
13868;SDS011;7004;48.206;16.402;2022-10-17T16:03:53;13.50;;;8.93;;
13868;SDS011;7004;48.206;16.402;2022-10-17T16:06:20;12.30;;;8.50;;
13868;SDS011;7004;48.206;16.402;2022-10-17T16:08:48;10.83;;;8.67;;
13868;SDS011;7004;48.206;16.402;2022-10-17T16:11:36;15.37;;;8.43;;
13868;SDS011;7004;48.206;16.402;2022-10-17T16:14:04;9.93;;;8.43;;
13868;SDS011;7004;48.206;16.402;2022-10-17T16:16:36;12.27;;;8.80;;
13868;SDS011;7004;48.206;16.402;2022-10-17T16:19:02;10.07;;;8.20;;
13868;SDS011;7004;48.206;16.402;2022-10-17T16:21:30;10.93;;;8.43;;
13868;SDS011;7004;48.206;16.402;2022-10-17T16:24:00;14.60;;;8.53;;
13868;SDS011;7004;48.206;16.402;2022-10-17T16:26:27;9.30;;;7.77;;
13868;SDS011;7004;48.206;16.402;2022-10-17T16:28:54;12.37;;;8.63;;
13868;SDS011;7004;48.206;16.402;2022-10-17T16:31:23;12.10;;;8.20;;
13868;SDS011;7004;48.206;16.402;2022-10-17T16:33:54;14.20;;;9.10;;
13868;SDS011;7004;48.206;16.402;2022-10-17T16:36:21;16.60;;;8.37;;
13868;SDS011;7004;48.206;16.402;2022-10-17T16:38:49;11.80;;;8.63;;
13868;SDS011;7004;48.206;16.402;2022-10-17T16:41:20;9.97;;;7.67;;
13868;SDS011;7004;48.206;16.402;2022-10-17T16:43:53;12.33;;;8.60;;
13868;SDS011;7004;48.206;16.402;2022-10-17T16:46:34;16.50;;;8.00;;
13868;SDS011;7004;48.206;16.402;2022-10-17T16:49:26;14.37;;;8.37;;
13868;SDS011;7004;48.206;16.402;2022-10-17T16:51:54;10.37;;;7.93;;
13868;SDS011;7004;48.206;16.402;2022-10-17T16:54:26;9.83;;;8.30;;